createdAt,value
2023-03-06T00:00:34.116Z,2.03
2023-03-06T00:03:00.855Z,1.50
2023-03-06T00:05:27.811Z,1.85
2023-03-06T00:07:54.552Z,1.83
2023-03-06T00:10:24.289Z,2.47
2023-03-06T00:13:14.620Z,2.53
2023-03-06T00:15:41.373Z,2.65
2023-03-06T00:18:08.146Z,2.33
2023-03-06T00:20:35.046Z,1.90
2023-03-06T00:23:01.942Z,1.85
2023-03-06T00:25:28.753Z,1.58
2023-03-06T00:27:55.608Z,2.00
2023-03-06T00:30:23.678Z,1.52
2023-03-06T00:32:50.480Z,1.98
2023-03-06T00:35:17.670Z,2.25
2023-03-06T00:37:44.690Z,2.30
2023-03-06T00:40:14.288Z,1.90
2023-03-06T00:42:41.937Z,1.85
2023-03-06T00:45:08.977Z,1.70
2023-03-06T00:47:35.804Z,1.55
2023-03-06T00:50:02.608Z,1.40
2023-03-06T00:52:29.392Z,1.95
2023-03-06T00:54:56.179Z,1.60
2023-03-06T00:57:22.956Z,1.30
2023-03-06T00:59:49.686Z,1.65
2023-03-06T01:02:16.398Z,1.95
2023-03-06T01:04:43.194Z,1.60
2023-03-06T01:07:10.750Z,1.52
2023-03-06T01:09:37.380Z,1.33
2023-03-06T01:12:04.320Z,1.58
2023-03-06T01:14:31.969Z,1.30
2023-03-06T01:16:58.727Z,1.63
2023-03-06T01:19:25.576Z,1.65
2023-03-06T01:21:52.340Z,1.67
2023-03-06T01:24:19.010Z,1.60
2023-03-06T01:26:45.873Z,1.65
2023-03-06T01:29:12.622Z,1.65
2023-03-06T01:31:39.455Z,2.22
2023-03-06T01:34:06.289Z,1.63
2023-03-06T01:36:33.097Z,1.73
2023-03-06T01:38:59.774Z,1.70
2023-03-06T01:41:26.523Z,1.50
2023-03-06T01:43:53.273Z,1.73
2023-03-06T01:46:29.085Z,2.20
2023-03-06T01:49:08.145Z,1.67
2023-03-06T01:51:58.555Z,1.80
2023-03-06T01:54:29.626Z,1.70
2023-03-06T01:56:59.352Z,1.70
2023-03-06T01:59:26.948Z,2.53
2023-03-06T02:01:54.182Z,1.50
2023-03-06T02:04:20.912Z,1.83
2023-03-06T02:06:47.632Z,1.77
2023-03-06T02:09:14.470Z,1.67
2023-03-06T02:11:44.020Z,1.85
2023-03-06T02:14:13.066Z,1.80
2023-03-06T02:16:39.870Z,1.40
2023-03-06T02:19:07.634Z,2.00
2023-03-06T02:21:35.357Z,2.22
2023-03-06T02:24:26.848Z,1.70
2023-03-06T02:26:53.713Z,1.85
2023-03-06T02:29:22.803Z,1.90
2023-03-06T02:31:49.568Z,1.80
2023-03-06T02:34:16.272Z,2.00
2023-03-06T02:36:45.717Z,2.40
2023-03-06T02:39:12.762Z,2.00
2023-03-06T02:41:40.157Z,1.88
2023-03-06T02:44:06.915Z,2.13
2023-03-06T02:46:33.673Z,2.42
2023-03-06T02:49:00.413Z,2.50
2023-03-06T02:51:27.547Z,2.15
2023-03-06T02:53:54.273Z,2.20
2023-03-06T02:56:20.961Z,2.22
2023-03-06T02:58:47.709Z,1.98
2023-03-06T03:01:14.644Z,2.13
2023-03-06T03:03:41.352Z,2.10
2023-03-06T03:06:08.135Z,1.95
2023-03-06T03:08:34.927Z,1.95
2023-03-06T03:11:01.720Z,2.20
2023-03-06T03:13:28.555Z,2.25
2023-03-06T03:16:00.160Z,2.83
2023-03-06T03:18:27.183Z,2.80
2023-03-06T03:20:53.936Z,2.70
2023-03-06T03:23:20.732Z,2.45
2023-03-06T03:25:47.402Z,2.90
2023-03-06T03:28:14.345Z,2.80
2023-03-06T03:30:41.523Z,2.78
2023-03-06T03:33:08.353Z,2.42
2023-03-06T03:35:35.157Z,2.88
2023-03-06T03:38:02.193Z,2.90
2023-03-06T03:40:29.102Z,2.80
2023-03-06T03:42:57.004Z,3.17
2023-03-06T03:45:24.173Z,2.88
2023-03-06T03:47:50.845Z,3.17
2023-03-06T03:50:18.516Z,2.75
2023-03-06T03:52:45.207Z,3.15
2023-03-06T03:55:11.993Z,3.05
2023-03-06T03:57:39.298Z,3.28
2023-03-06T04:00:08.037Z,3.05
2023-03-06T04:02:34.770Z,3.47
2023-03-06T04:05:01.621Z,2.92
2023-03-06T04:07:28.772Z,2.60
2023-03-06T04:09:55.514Z,2.97
2023-03-06T04:12:22.223Z,2.92
2023-03-06T04:14:48.944Z,3.08
2023-03-06T04:17:15.668Z,3.00
2023-03-06T04:19:42.332Z,3.38
2023-03-06T04:22:09.042Z,3.08
2023-03-06T04:24:35.713Z,3.15
2023-03-06T04:27:02.471Z,2.90
2023-03-06T04:29:29.208Z,3.20
2023-03-06T04:31:55.932Z,3.45
2023-03-06T04:34:22.752Z,3.15
2023-03-06T04:36:49.413Z,3.60
2023-03-06T04:39:16.158Z,3.53
2023-03-06T04:41:42.874Z,3.72
2023-03-06T04:44:09.862Z,3.08
2023-03-06T04:46:36.696Z,3.30
2023-03-06T04:49:04.203Z,3.08
2023-03-06T04:51:31.190Z,3.28
2023-03-06T04:53:57.978Z,3.53
2023-03-06T04:56:24.680Z,3.65
2023-03-06T04:58:51.375Z,3.30
2023-03-06T05:01:18.609Z,3.30
2023-03-06T05:03:45.466Z,3.40
2023-03-06T05:06:12.164Z,3.13
2023-03-06T05:08:38.941Z,3.58
2023-03-06T05:11:05.770Z,2.90
2023-03-06T05:13:32.526Z,3.13
2023-03-06T05:16:06.060Z,3.83
2023-03-06T05:18:34.995Z,3.53
2023-03-06T05:21:01.848Z,3.80
2023-03-06T05:23:29.282Z,3.25
2023-03-06T05:25:56.254Z,3.30
2023-03-06T05:28:23.230Z,2.90
2023-03-06T05:30:50.436Z,3.20
2023-03-06T05:33:17.173Z,3.05
2023-03-06T05:35:48.198Z,3.63
2023-03-06T05:38:18.077Z,3.20
2023-03-06T05:40:44.859Z,2.90
2023-03-06T05:43:11.927Z,2.83
2023-03-06T05:45:39.467Z,3.13
2023-03-06T05:48:06.377Z,3.40
2023-03-06T05:50:33.607Z,2.95
2023-03-06T05:53:00.331Z,2.80
2023-03-06T05:55:27.007Z,2.72
2023-03-06T05:57:54.289Z,2.42
2023-03-06T06:00:23.195Z,2.80
2023-03-06T06:02:50.183Z,2.70
2023-03-06T06:05:17.108Z,2.42
2023-03-06T06:07:43.886Z,3.33
2023-03-06T06:10:11.930Z,2.83
2023-03-06T06:12:38.596Z,3.58
2023-03-06T06:15:06.610Z,3.60
2023-03-06T06:17:33.319Z,3.50
2023-03-06T06:20:00.159Z,3.70
2023-03-06T06:22:27.080Z,3.30
2023-03-06T06:24:54.115Z,3.60
2023-03-06T06:27:20.910Z,3.00
2023-03-06T06:29:51.167Z,3.35
2023-03-06T06:32:18.515Z,2.88
2023-03-06T06:34:45.311Z,3.22
2023-03-06T06:37:12.097Z,3.22
2023-03-06T06:39:38.921Z,3.05
2023-03-06T06:42:28.958Z,3.42
2023-03-06T06:44:52.513Z,3.00
2023-03-06T06:47:24.854Z,3.13
2023-03-06T06:49:53.552Z,2.65
2023-03-06T06:52:20.462Z,3.00
2023-03-06T06:54:47.466Z,3.35
2023-03-06T06:57:14.315Z,2.95
2023-03-06T06:59:41.098Z,3.08
2023-03-06T07:02:08.338Z,2.70
2023-03-06T07:04:35.064Z,3.20
2023-03-06T07:07:01.877Z,2.72
2023-03-06T07:09:30.827Z,2.63
2023-03-06T07:11:57.839Z,2.42
2023-03-06T07:14:24.809Z,2.28
2023-03-06T07:16:51.549Z,2.40
2023-03-06T07:19:18.436Z,2.28
2023-03-06T07:21:45.264Z,1.92
2023-03-06T07:24:12.134Z,2.03
2023-03-06T07:26:38.876Z,2.00
2023-03-06T07:29:05.618Z,1.90
2023-03-06T07:31:32.372Z,2.00
2023-03-06T07:33:59.728Z,1.83
2023-03-06T07:36:26.496Z,1.85
2023-03-06T07:38:53.196Z,1.95
2023-03-06T07:41:22.529Z,2.10
2023-03-06T07:43:49.746Z,2.33
2023-03-06T07:46:16.725Z,1.67
2023-03-06T07:48:43.537Z,1.45
2023-03-06T07:51:15.776Z,1.73
2023-03-06T07:53:42.580Z,1.77
2023-03-06T07:56:09.540Z,2.30
2023-03-06T07:58:40.921Z,1.40
2023-03-06T08:01:12.371Z,1.55
2023-03-06T08:03:39.296Z,1.65
2023-03-06T08:06:10.647Z,2.25
2023-03-06T08:08:39.691Z,2.42
2023-03-06T08:11:07.392Z,2.03
2023-03-06T08:13:34.144Z,1.90
2023-03-06T08:16:01.405Z,2.13
2023-03-06T08:18:28.419Z,1.90
2023-03-06T08:21:09.095Z,1.98
2023-03-06T08:23:35.942Z,1.90
2023-03-06T08:26:04.649Z,2.05
2023-03-06T08:28:31.444Z,1.80
2023-03-06T08:30:58.311Z,2.10
2023-03-06T08:33:25.159Z,2.20
2023-03-06T08:35:52.757Z,1.70
2023-03-06T08:38:19.541Z,2.13
2023-03-06T08:40:46.252Z,1.60
2023-03-06T08:43:14.362Z,1.95
2023-03-06T08:45:41.291Z,1.65
2023-03-06T08:48:08.059Z,1.77
2023-03-06T08:50:34.893Z,1.60
2023-03-06T08:53:01.598Z,1.52
2023-03-06T08:55:28.412Z,2.17
2023-03-06T08:57:55.249Z,2.33
2023-03-06T09:00:22.242Z,1.70
2023-03-06T09:02:48.945Z,1.83
2023-03-06T09:05:15.811Z,1.92
2023-03-06T09:07:42.614Z,2.08
2023-03-06T09:10:14.062Z,1.75
2023-03-06T09:12:49.873Z,2.08
2023-03-06T09:15:17.623Z,2.30
2023-03-06T09:17:44.467Z,2.63
2023-03-06T09:20:11.928Z,2.85
2023-03-06T09:22:38.745Z,2.25
2023-03-06T09:25:06.339Z,1.98
2023-03-06T09:27:33.177Z,2.65
2023-03-06T09:29:59.831Z,2.67
2023-03-06T09:32:26.652Z,2.13
2023-03-06T09:34:53.316Z,2.22
2023-03-06T09:37:19.964Z,2.38
2023-03-06T09:39:46.704Z,2.13
2023-03-06T09:42:16.491Z,2.80
2023-03-06T09:44:43.482Z,2.65
2023-03-06T09:47:31.720Z,3.30
2023-03-06T09:50:13.556Z,2.92
2023-03-06T09:53:11.191Z,2.10
2023-03-06T09:55:38.652Z,3.20
2023-03-06T09:58:25.543Z,3.25
2023-03-06T10:00:58.102Z,3.05
2023-03-06T10:03:48.740Z,2.75
2023-03-06T10:06:16.546Z,3.35
2023-03-06T10:08:48.183Z,2.55
2023-03-06T10:11:18.496Z,2.50
2023-03-06T10:13:47.323Z,2.20
2023-03-06T10:16:30.644Z,2.40
2023-03-06T10:19:01.484Z,2.63
2023-03-06T10:21:49.860Z,3.63
2023-03-06T10:24:19.302Z,3.45
2023-03-06T10:27:16.913Z,3.30
2023-03-06T10:30:32.666Z,2.78
2023-03-06T10:33:00.644Z,3.47
2023-03-06T10:35:54.870Z,3.00
2023-03-06T10:38:31.522Z,3.65
2023-03-06T10:41:08.363Z,4.28
2023-03-06T10:43:36.498Z,3.45
2023-03-06T10:46:04.012Z,2.95
2023-03-06T10:48:32.784Z,3.50
2023-03-06T10:51:20.338Z,2.72
2023-03-06T10:53:53.151Z,3.80
2023-03-06T10:56:40.423Z,3.55
2023-03-06T10:59:18.895Z,3.63
2023-03-06T11:01:56.456Z,4.18
2023-03-06T11:04:30.048Z,3.88
2023-03-06T11:07:19.890Z,3.55
2023-03-06T11:09:58.951Z,4.15
2023-03-06T11:12:36.200Z,3.60
2023-03-06T11:15:17.417Z,4.10
2023-03-06T11:17:55.864Z,3.72
2023-03-06T11:20:24.045Z,4.10
2023-03-06T11:23:04.238Z,4.15
2023-03-06T11:25:40.467Z,4.30
2023-03-06T11:28:22.721Z,3.08
2023-03-06T11:30:52.384Z,3.10
2023-03-06T11:33:30.831Z,3.15
2023-03-06T11:36:00.753Z,3.17
2023-03-06T11:38:35.602Z,2.97
2023-03-06T11:41:03.438Z,3.10
2023-03-06T11:43:55.691Z,2.83
2023-03-06T11:46:28.540Z,3.42
2023-03-06T11:49:19.046Z,2.95
2023-03-06T11:51:51.058Z,3.30
2023-03-06T11:54:17.757Z,3.00
2023-03-06T11:56:48.291Z,2.55
2023-03-06T11:59:23.962Z,3.03
2023-03-06T12:01:59.302Z,2.55
2023-03-06T12:04:39.617Z,2.38
2023-03-06T12:07:22.641Z,2.63
2023-03-06T12:10:14.437Z,3.38
2023-03-06T12:12:51.338Z,4.00
2023-03-06T12:15:48.954Z,3.30
2023-03-06T12:18:26.123Z,3.05
2023-03-06T12:20:55.228Z,2.53
2023-03-06T12:23:49.187Z,2.50
2023-03-06T12:26:52.427Z,2.47
2023-03-06T12:29:43.988Z,2.17
2023-03-06T12:32:21.148Z,2.70
2023-03-06T12:34:59.200Z,2.72
2023-03-06T12:37:44.009Z,2.63
2023-03-06T12:40:36.084Z,2.67
2023-03-06T12:43:27.366Z,2.63
2023-03-06T12:46:21.474Z,2.10
2023-03-06T12:49:05.299Z,1.88
2023-03-06T12:51:32.481Z,1.80
2023-03-06T12:53:59.829Z,1.95
2023-03-06T12:56:26.571Z,2.13
2023-03-06T12:58:57.410Z,1.40
2023-03-06T13:01:39.300Z,2.28
2023-03-06T13:04:27.518Z,2.65
2023-03-06T13:07:27.974Z,2.80
2023-03-06T13:10:16.448Z,2.20
2023-03-06T13:13:00.677Z,2.63
2023-03-06T13:15:42.982Z,2.20
2023-03-06T13:18:32.737Z,1.55
2023-03-06T13:20:59.476Z,1.90
2023-03-06T13:23:29.379Z,2.20
2023-03-06T13:25:59.995Z,2.10
2023-03-06T13:28:39.364Z,2.05
2023-03-06T13:31:10.608Z,2.22
2023-03-06T13:36:22.725Z,3.78
2023-03-06T13:38:49.378Z,3.53
2023-03-06T13:41:24.944Z,3.22
2023-03-06T13:43:52.976Z,2.80
2023-03-06T13:46:26.113Z,2.60
2023-03-06T13:49:08.866Z,1.98
2023-03-06T13:51:37.328Z,1.90
2023-03-06T13:54:41.622Z,2.22
2023-03-06T13:57:57.535Z,1.95
2023-03-06T14:00:45.527Z,1.80
2023-03-06T14:03:53.933Z,1.30
2023-03-06T14:06:35.610Z,2.08
2023-03-06T14:09:26.195Z,1.80
2023-03-06T14:12:17.682Z,1.95
2023-03-06T14:14:49.022Z,2.35
2023-03-06T14:17:21.918Z,2.08
2023-03-06T14:19:48.625Z,2.10
2023-03-06T14:22:17.629Z,1.52
2023-03-06T14:24:51.605Z,1.35
2023-03-06T14:27:19.068Z,1.65
2023-03-06T14:29:48.637Z,1.50
2023-03-06T14:32:18.627Z,1.70
2023-03-06T14:34:48.271Z,1.52
2023-03-06T14:37:22.656Z,1.98
2023-03-06T14:39:49.383Z,1.30
2023-03-06T14:42:24.110Z,1.50
2023-03-06T14:45:02.309Z,2.50
2023-03-06T14:47:31.017Z,1.73
2023-03-06T14:50:20.150Z,1.98
2023-03-06T14:52:47.675Z,1.40
2023-03-06T14:55:18.974Z,1.38
2023-03-06T14:57:49.592Z,1.40
2023-03-06T15:00:19.228Z,1.20
2023-03-06T15:02:46.119Z,1.15
2023-03-06T15:05:26.830Z,1.30
2023-03-06T15:07:53.659Z,1.35
2023-03-06T15:10:28.853Z,1.95
2023-03-06T15:12:55.746Z,2.33
2023-03-06T15:15:28.021Z,2.08
2023-03-06T15:17:54.847Z,2.20
2023-03-06T15:20:36.899Z,1.55
2023-03-06T15:23:03.708Z,1.33
2023-03-06T15:25:30.996Z,1.52
2023-03-06T15:28:02.859Z,1.52
2023-03-06T15:30:33.864Z,1.05
2023-03-06T15:33:19.539Z,1.23
2023-03-06T15:36:00.867Z,1.02
2023-03-06T15:38:35.225Z,1.70
2023-03-06T15:41:02.608Z,1.65
2023-03-06T15:43:36.694Z,2.00
2023-03-06T15:46:04.624Z,1.95
2023-03-06T15:48:31.492Z,1.80
2023-03-06T15:50:58.366Z,1.45
2023-03-06T15:53:25.356Z,1.70
2023-03-06T15:55:52.308Z,1.60
2023-03-06T15:58:24.951Z,1.35
2023-03-06T16:00:51.718Z,1.50
2023-03-06T16:03:18.582Z,1.20
2023-03-06T16:05:45.459Z,1.08
2023-03-06T16:08:14.902Z,1.05
2023-03-06T16:10:42.634Z,1.30
2023-03-06T16:13:16.922Z,1.20
2023-03-06T16:15:48.142Z,1.20
2023-03-06T16:18:15.176Z,1.00
2023-03-06T16:20:41.991Z,1.10
2023-03-06T16:23:10.615Z,1.15
2023-03-06T16:25:38.980Z,1.63
2023-03-06T16:28:08.633Z,1.38
2023-03-06T16:30:35.760Z,1.67
2023-03-06T16:33:03.505Z,1.40
2023-03-06T16:35:30.820Z,1.50
2023-03-06T16:37:58.807Z,1.30
2023-03-06T16:40:32.403Z,1.60
2023-03-06T16:42:59.148Z,1.30
2023-03-06T16:45:25.896Z,1.20
2023-03-06T16:47:52.692Z,1.40
2023-03-06T16:50:22.561Z,1.35
2023-03-06T16:52:49.602Z,1.80
2023-03-06T16:55:16.953Z,1.35
2023-03-06T16:57:43.708Z,1.05
2023-03-06T17:00:11.434Z,1.42
2023-03-06T17:02:41.534Z,1.23
2023-03-06T17:05:08.791Z,1.05
2023-03-06T17:07:36.761Z,0.90
2023-03-06T17:10:04.901Z,1.20
2023-03-06T17:12:31.734Z,1.00
2023-03-06T17:14:58.416Z,1.08
2023-03-06T17:17:25.218Z,1.10
2023-03-06T17:19:52.607Z,1.42
2023-03-06T17:22:19.876Z,1.30
2023-03-06T17:24:52.268Z,1.35
2023-03-06T17:27:19.479Z,1.10
2023-03-06T17:29:46.234Z,1.33
2023-03-06T17:32:13.056Z,1.17
2023-03-06T17:34:39.718Z,1.15
2023-03-06T17:37:06.520Z,1.30
2023-03-06T17:39:36.953Z,0.90
2023-03-06T17:42:04.241Z,1.10
2023-03-06T17:44:31.649Z,1.38
2023-03-06T17:46:58.484Z,1.30
2023-03-06T17:49:25.571Z,1.23
2023-03-06T17:51:52.892Z,1.70
2023-03-06T17:54:19.765Z,1.42
2023-03-06T17:56:46.660Z,1.58
2023-03-06T17:59:13.416Z,1.35
2023-03-06T18:01:40.662Z,1.27
2023-03-06T18:04:07.685Z,1.08
2023-03-06T18:06:34.569Z,1.20
2023-03-06T18:09:01.310Z,1.30
2023-03-06T18:11:28.171Z,1.20
2023-03-06T18:13:55.330Z,1.38
2023-03-06T18:16:23.664Z,1.40
2023-03-06T18:18:54.307Z,1.17
2023-03-06T18:21:21.255Z,1.10
2023-03-06T18:23:48.130Z,1.10
2023-03-06T18:26:16.544Z,1.65
2023-03-06T18:28:45.159Z,1.00
2023-03-06T18:31:24.480Z,1.05
2023-03-06T18:33:54.148Z,1.05
2023-03-06T18:36:21.937Z,1.10
2023-03-06T18:38:49.878Z,1.33
2023-03-06T18:41:17.409Z,1.10
2023-03-06T18:43:44.308Z,0.90
2023-03-06T18:46:11.064Z,1.00
2023-03-06T18:48:37.860Z,1.10
2023-03-06T18:51:09.061Z,0.90
2023-03-06T18:53:36.451Z,1.17
2023-03-06T18:56:03.961Z,1.40
2023-03-06T18:58:31.277Z,1.15
2023-03-06T19:00:59.650Z,1.52
2023-03-06T19:03:26.985Z,1.17
2023-03-06T19:05:53.817Z,1.40
2023-03-06T19:08:20.558Z,1.20
2023-03-06T19:10:47.510Z,1.30
2023-03-06T19:13:14.953Z,1.00
2023-03-06T19:15:50.698Z,1.17
2023-03-06T19:18:17.708Z,1.10
2023-03-06T19:20:44.706Z,1.13
2023-03-06T19:23:11.701Z,0.85
2023-03-06T19:25:38.573Z,1.25
2023-03-06T19:28:05.891Z,1.20
2023-03-06T19:30:33.011Z,1.08
2023-03-06T19:32:59.756Z,1.10
2023-03-06T19:35:27.754Z,1.30
2023-03-06T19:37:55.025Z,1.10
2023-03-06T19:40:22.065Z,1.10
2023-03-06T19:42:50.032Z,1.15
2023-03-06T19:45:17.394Z,1.60
2023-03-06T19:47:44.654Z,1.55
2023-03-06T19:50:12.065Z,0.95
2023-03-06T19:52:39.618Z,0.77
2023-03-06T19:55:08.698Z,0.65
2023-03-06T19:57:35.491Z,0.88
2023-03-06T20:00:02.541Z,0.98
2023-03-06T20:02:30.083Z,0.70
2023-03-06T20:04:57.227Z,1.00
2023-03-06T20:07:24.375Z,0.70
2023-03-06T20:09:52.489Z,0.75
2023-03-06T20:12:19.239Z,0.60
2023-03-06T20:14:46.463Z,0.60
2023-03-06T20:17:13.759Z,0.65
2023-03-06T20:19:41.065Z,0.60
2023-03-06T20:22:07.909Z,0.70
2023-03-06T20:24:35.007Z,0.70
2023-03-06T20:27:02.392Z,0.70
2023-03-06T20:29:29.684Z,0.63
2023-03-06T20:31:57.372Z,0.63
2023-03-06T20:34:24.627Z,1.17
2023-03-06T20:36:51.893Z,1.10
2023-03-06T20:39:21.089Z,1.48
2023-03-06T20:41:48.424Z,2.17
2023-03-06T20:44:17.730Z,2.15
2023-03-06T20:46:45.094Z,2.13
2023-03-06T20:49:13.155Z,2.42
2023-03-06T20:51:40.617Z,2.13
2023-03-06T20:54:08.538Z,2.28
2023-03-06T20:56:36.509Z,2.80
2023-03-06T20:59:03.494Z,2.35
2023-03-06T21:01:32.162Z,1.90
2023-03-06T21:03:59.318Z,2.00
2023-03-06T21:06:26.971Z,2.05
2023-03-06T21:08:53.966Z,1.63
2023-03-06T21:11:20.775Z,1.60
2023-03-06T21:13:48.236Z,1.50
2023-03-06T21:16:16.756Z,1.55
2023-03-06T21:18:43.639Z,1.73
2023-03-06T21:21:19.033Z,1.52
2023-03-06T21:23:46.932Z,1.20
2023-03-06T21:26:21.423Z,1.13
2023-03-06T21:28:48.268Z,1.00
2023-03-06T21:31:16.499Z,0.90
2023-03-06T21:33:43.739Z,1.10
2023-03-06T21:36:11.048Z,0.88
2023-03-06T21:38:38.108Z,0.90
2023-03-06T21:41:13.649Z,0.90
2023-03-06T21:43:40.758Z,0.95
2023-03-06T21:46:07.936Z,1.00
2023-03-06T21:48:35.104Z,0.98
2023-03-06T21:51:13.623Z,0.90
2023-03-06T21:53:44.284Z,0.80
2023-03-06T21:56:11.327Z,0.82
2023-03-06T21:58:38.206Z,1.20
2023-03-06T22:01:09.924Z,1.00
2023-03-06T22:03:36.857Z,1.48
2023-03-06T22:06:14.424Z,1.50
2023-03-06T22:08:41.460Z,1.30
2023-03-06T22:11:09.772Z,1.13
2023-03-06T22:13:37.024Z,1.30
2023-03-06T22:16:04.083Z,1.30
2023-03-06T22:18:30.988Z,1.20
2023-03-06T22:20:57.704Z,1.30
2023-03-06T22:23:24.469Z,1.05
2023-03-06T22:25:51.260Z,1.20
2023-03-06T22:28:19.135Z,1.33
2023-03-06T22:30:46.243Z,1.35
2023-03-06T22:33:13.016Z,0.98
2023-03-06T22:35:39.772Z,0.82
2023-03-06T22:38:06.604Z,1.10
2023-03-06T22:40:33.332Z,1.52
2023-03-06T22:43:00.065Z,1.17
2023-03-06T22:45:27.076Z,1.17
2023-03-06T22:48:02.339Z,1.15
2023-03-06T22:50:36.132Z,1.27
2023-03-06T22:53:03.250Z,1.55
2023-03-06T22:55:29.922Z,1.42
2023-03-06T22:57:56.685Z,1.20
2023-03-06T23:00:24.805Z,1.38
2023-03-06T23:02:52.012Z,1.17
2023-03-06T23:05:18.931Z,1.10
2023-03-06T23:07:45.804Z,1.13
2023-03-06T23:10:12.448Z,0.80
2023-03-06T23:12:41.609Z,0.90
2023-03-06T23:15:08.454Z,0.80
2023-03-06T23:17:35.260Z,1.10
2023-03-06T23:20:06.040Z,1.02
2023-03-06T23:22:33.233Z,0.98
2023-03-06T23:24:59.969Z,0.88
2023-03-06T23:27:26.640Z,0.80
2023-03-06T23:29:56.797Z,0.80
2023-03-06T23:32:23.672Z,0.93
2023-03-06T23:34:50.499Z,0.80
2023-03-06T23:37:17.234Z,0.98
2023-03-06T23:39:43.935Z,0.50
2023-03-06T23:42:11.111Z,0.60
2023-03-06T23:44:38.019Z,0.98
2023-03-06T23:47:04.942Z,1.10
2023-03-06T23:49:31.732Z,1.23
2023-03-06T23:51:58.663Z,0.90
2023-03-06T23:54:25.394Z,0.98
2023-03-06T23:56:52.102Z,0.82
2023-03-06T23:59:18.871Z,0.70
